createdAt,value
2019-02-15T00:00:08.290Z,7.20
2019-02-15T00:01:08.248Z,7.36
2019-02-15T00:03:40.280Z,7.50
2019-02-15T00:04:40.213Z,7.51
2019-02-15T00:05:40.169Z,7.53
2019-02-15T00:06:40.128Z,7.56
2019-02-15T00:07:40.086Z,7.69
2019-02-15T00:08:40.059Z,7.63
2019-02-15T00:09:40.008Z,7.53
2019-02-15T00:10:39.969Z,7.57
2019-02-15T00:11:39.927Z,7.56
2019-02-15T00:12:39.885Z,7.47
2019-02-15T00:13:39.843Z,7.40
2019-02-15T00:14:39.802Z,7.31
2019-02-15T00:15:39.758Z,7.28
2019-02-15T00:16:39.722Z,7.20
2019-02-15T00:17:39.682Z,7.13
2019-02-15T00:18:39.644Z,7.10
2019-02-15T00:19:39.597Z,7.10
2019-02-15T00:20:39.555Z,7.17
2019-02-15T00:21:39.517Z,7.03
2019-02-15T00:22:39.476Z,7.06
2019-02-15T00:23:39.437Z,7.02
2019-02-15T00:24:39.393Z,7.03
2019-02-15T00:25:39.352Z,7.14
2019-02-15T00:26:39.317Z,7.33
2019-02-15T00:27:39.266Z,7.33
2019-02-15T00:28:39.241Z,7.32
2019-02-15T00:29:39.188Z,7.43
2019-02-15T00:30:39.148Z,7.47
2019-02-15T00:31:39.106Z,7.53
2019-02-15T00:32:39.062Z,7.56
2019-02-15T00:33:39.021Z,7.69
2019-02-15T00:34:38.979Z,7.80
2019-02-15T00:35:38.943Z,7.83
2019-02-15T00:36:38.899Z,7.94
2019-02-15T00:37:38.857Z,8.05
2019-02-15T00:38:38.813Z,8.10
2019-02-15T00:39:38.771Z,8.20
2019-02-15T00:40:38.732Z,8.24
2019-02-15T00:41:38.693Z,8.30
2019-02-15T00:42:38.654Z,8.26
2019-02-15T00:43:38.613Z,8.36
2019-02-15T00:44:38.573Z,8.36
2019-02-15T00:45:38.529Z,8.33
2019-02-15T00:46:38.483Z,8.41
2019-02-15T00:47:38.442Z,8.41
2019-02-15T00:48:38.402Z,8.37
2019-02-15T00:49:38.364Z,8.42
2019-02-15T00:50:38.330Z,8.41
2019-02-15T00:51:38.281Z,8.31
2019-02-15T00:52:38.242Z,8.30
2019-02-15T00:53:38.202Z,8.20
2019-02-15T00:54:38.161Z,8.28
2019-02-15T00:55:38.123Z,8.27
2019-02-15T00:56:38.077Z,8.27
2019-02-15T00:57:38.035Z,8.27
2019-02-15T00:58:37.995Z,8.34
2019-02-15T00:59:37.951Z,8.33
2019-02-15T01:00:37.913Z,8.45
2019-02-15T01:01:37.875Z,8.48
2019-02-15T01:02:37.835Z,8.53
2019-02-15T01:03:37.795Z,8.56
2019-02-15T01:04:37.750Z,8.63
2019-02-15T01:05:37.708Z,8.61
2019-02-15T01:06:37.663Z,8.63
2019-02-15T01:07:37.631Z,8.67
2019-02-15T01:08:37.587Z,8.63
2019-02-15T01:09:37.545Z,8.64
2019-02-15T01:10:37.501Z,8.70
2019-02-15T01:11:37.463Z,8.53
2019-02-15T01:12:37.422Z,8.71
2019-02-15T01:13:37.382Z,8.78
2019-02-15T01:14:37.343Z,8.74
2019-02-15T01:15:37.302Z,8.69
2019-02-15T01:16:37.263Z,8.78
2019-02-15T01:17:37.217Z,8.74
2019-02-15T01:18:37.174Z,8.71
2019-02-15T01:19:37.133Z,8.70
2019-02-15T01:20:37.094Z,8.71
2019-02-15T01:21:37.057Z,8.69
2019-02-15T01:22:37.018Z,8.67
2019-02-15T01:23:36.968Z,8.64
2019-02-15T01:24:36.931Z,8.56
2019-02-15T01:25:36.893Z,8.51
2019-02-15T01:26:36.854Z,8.48
2019-02-15T01:27:36.813Z,8.53
2019-02-15T01:28:36.772Z,8.64
2019-02-15T01:29:36.729Z,8.66
2019-02-15T01:30:36.685Z,8.66
2019-02-15T01:31:36.644Z,8.67
2019-02-15T01:32:36.603Z,8.74
2019-02-15T01:33:36.567Z,8.74
2019-02-15T01:34:36.523Z,8.67
2019-02-15T01:35:36.482Z,8.67
2019-02-15T01:36:36.444Z,8.60
2019-02-15T01:37:36.402Z,8.37
2019-02-15T01:38:36.360Z,8.26
2019-02-15T01:39:36.319Z,8.19
2019-02-15T01:40:36.282Z,8.23
2019-02-15T01:41:36.234Z,8.13
2019-02-15T01:42:36.195Z,7.98
2019-02-15T01:43:40.095Z,7.95
2019-02-15T01:44:36.112Z,7.82
2019-02-15T01:45:36.077Z,7.80
2019-02-15T01:46:36.035Z,7.73
2019-02-15T01:47:36.000Z,7.50
2019-02-15T01:48:35.955Z,7.47
2019-02-15T01:49:35.914Z,7.58
2019-02-15T01:50:35.870Z,7.57
2019-02-15T01:51:35.828Z,7.63
2019-02-15T01:52:35.786Z,7.76
2019-02-15T01:53:35.751Z,7.87
2019-02-15T01:54:35.708Z,7.98
2019-02-15T01:55:35.669Z,8.12
2019-02-15T01:56:35.623Z,8.16
2019-02-15T01:57:35.588Z,8.30
2019-02-15T01:58:35.545Z,8.42
2019-02-15T01:59:35.503Z,8.33
2019-02-15T02:00:35.467Z,8.44
2019-02-15T02:01:35.419Z,8.44
2019-02-15T02:02:35.380Z,8.46
2019-02-15T02:03:35.342Z,8.45
2019-02-15T02:04:35.296Z,8.51
2019-02-15T02:05:35.261Z,8.48
2019-02-15T02:06:35.217Z,8.44
2019-02-15T02:07:35.176Z,8.37
2019-02-15T02:08:35.137Z,8.36
2019-02-15T02:09:35.091Z,8.26
2019-02-15T02:10:35.055Z,8.24
2019-02-15T02:11:35.013Z,8.13
2019-02-15T02:12:34.975Z,8.03
2019-02-15T02:13:34.928Z,7.97
2019-02-15T02:14:34.891Z,7.94
2019-02-15T02:15:34.848Z,7.94
2019-02-15T02:16:34.811Z,7.87
2019-02-15T02:17:34.771Z,7.87
2019-02-15T02:18:34.730Z,7.85
2019-02-15T02:19:34.687Z,7.79
2019-02-15T02:20:34.648Z,7.82
2019-02-15T02:21:34.603Z,7.82
2019-02-15T02:22:34.562Z,7.79
2019-02-15T02:23:34.520Z,7.73
2019-02-15T02:24:34.478Z,7.83
2019-02-15T02:25:34.443Z,7.79
2019-02-15T02:26:34.401Z,7.83
2019-02-15T02:27:34.357Z,7.83
2019-02-15T02:28:34.322Z,7.83
2019-02-15T02:29:34.281Z,7.88
2019-02-15T02:30:34.239Z,8.01
2019-02-15T02:31:34.201Z,8.06
2019-02-15T02:32:34.156Z,8.15
2019-02-15T02:33:34.110Z,8.19
2019-02-15T02:34:34.076Z,8.13
2019-02-15T02:35:34.029Z,8.16
2019-02-15T02:36:33.989Z,8.20
2019-02-15T02:37:33.954Z,8.19
2019-02-15T02:38:33.910Z,8.20
2019-02-15T02:39:33.869Z,8.26
2019-02-15T02:40:33.831Z,8.10
2019-02-15T02:41:33.784Z,8.16
2019-02-15T02:42:33.745Z,8.15
2019-02-15T02:43:33.704Z,8.18
2019-02-15T02:44:33.669Z,8.18
2019-02-15T02:45:33.618Z,8.20
2019-02-15T02:46:33.587Z,8.28
2019-02-15T02:47:33.540Z,8.24
2019-02-15T02:48:33.500Z,8.36
2019-02-15T02:49:33.461Z,8.28
2019-02-15T02:50:33.419Z,8.31
2019-02-15T02:51:33.382Z,8.31
2019-02-15T02:52:33.339Z,8.31
2019-02-15T02:53:33.292Z,8.26
2019-02-15T02:54:33.254Z,8.23
2019-02-15T02:55:33.212Z,8.38
2019-02-15T02:56:33.168Z,8.33
2019-02-15T02:57:33.137Z,8.36
2019-02-15T02:58:33.093Z,8.34
2019-02-15T02:59:33.048Z,8.42
2019-02-15T03:00:33.815Z,8.53
2019-02-15T03:01:32.975Z,8.58
2019-02-15T03:02:32.929Z,8.58
2019-02-15T03:03:32.887Z,8.67
2019-02-15T03:04:32.985Z,8.66
2019-02-15T03:05:32.804Z,8.76
2019-02-15T03:06:32.765Z,8.89
2019-02-15T03:07:32.721Z,8.82
2019-02-15T03:08:32.679Z,8.74
2019-02-15T03:09:32.662Z,8.81
2019-02-15T03:10:32.611Z,8.74
2019-02-15T03:11:32.564Z,8.56
2019-02-15T03:12:32.522Z,8.46
2019-02-15T03:13:32.474Z,8.48
2019-02-15T03:14:32.442Z,8.31
2019-02-15T03:15:32.397Z,8.20
2019-02-15T03:16:32.369Z,8.08
2019-02-15T03:17:32.313Z,8.06
2019-02-15T03:18:32.273Z,8.05
2019-02-15T03:19:32.232Z,7.87
2019-02-15T03:20:32.189Z,7.82
2019-02-15T03:21:32.155Z,7.69
2019-02-15T03:22:32.111Z,7.67
2019-02-15T03:23:32.072Z,7.56
2019-02-15T03:24:32.032Z,7.57
2019-02-15T03:25:31.986Z,7.67
2019-02-15T03:26:31.951Z,7.60
2019-02-15T03:27:31.907Z,7.53
2019-02-15T03:28:31.870Z,7.61
2019-02-15T03:29:31.829Z,7.48
2019-02-15T03:30:31.789Z,7.56
2019-02-15T03:31:31.747Z,7.53
2019-02-15T03:32:31.711Z,7.66
2019-02-15T03:33:31.665Z,7.77
2019-02-15T03:34:31.623Z,7.72
2019-02-15T03:35:31.589Z,7.70
2019-02-15T03:36:31.542Z,7.69
2019-02-15T03:37:31.495Z,7.70
2019-02-15T03:38:31.460Z,7.54
2019-02-15T03:39:31.417Z,7.57
2019-02-15T03:40:31.373Z,7.54
2019-02-15T03:41:31.341Z,7.50
2019-02-15T03:42:31.294Z,7.53
2019-02-15T03:43:31.254Z,7.47
2019-02-15T03:44:31.217Z,7.48
2019-02-15T03:45:31.171Z,7.48
2019-02-15T03:46:31.132Z,7.38
2019-02-15T03:47:31.090Z,7.43
2019-02-15T03:48:31.053Z,7.50
2019-02-15T03:49:31.006Z,7.50
2019-02-15T04:06:06.291Z,7.60
2019-02-15T04:07:06.224Z,7.48
2019-02-15T04:08:06.180Z,7.50
2019-02-15T04:09:06.137Z,7.45
2019-02-15T04:10:06.090Z,7.40
2019-02-15T04:11:06.045Z,7.35
2019-02-15T04:12:06.002Z,7.32
2019-02-15T04:13:05.954Z,7.29
2019-02-15T04:14:05.911Z,7.29
2019-02-15T04:15:05.883Z,7.28
2019-02-15T04:16:05.831Z,7.32
2019-02-15T04:17:05.782Z,7.18
2019-02-15T04:18:05.741Z,7.29
2019-02-15T04:19:05.705Z,7.21
2019-02-15T04:20:05.661Z,7.23
2019-02-15T04:21:05.635Z,7.23
2019-02-15T04:22:05.576Z,7.21
2019-02-15T04:23:05.531Z,7.18
2019-02-15T04:24:05.490Z,7.11
2019-02-15T04:25:05.458Z,7.03
2019-02-15T04:26:05.406Z,7.06
2019-02-15T04:27:05.403Z,7.05
2019-02-15T04:28:05.338Z,7.00
2019-02-15T04:29:05.288Z,6.99
2019-02-15T04:30:05.242Z,6.99
2019-02-15T04:31:05.195Z,7.02
2019-02-15T04:32:05.156Z,7.05
2019-02-15T04:33:05.118Z,7.00
2019-02-15T04:34:05.073Z,7.00
2019-02-15T04:35:05.030Z,6.97
2019-02-15T04:36:04.987Z,6.97
2019-02-15T04:37:04.944Z,7.03
2019-02-15T04:38:04.910Z,6.97
2019-02-15T04:39:04.866Z,6.97
2019-02-15T04:40:04.827Z,6.93
2019-02-15T04:41:04.784Z,6.85
2019-02-15T04:42:04.740Z,6.87
2019-02-15T04:43:04.700Z,6.84
2019-02-15T04:44:04.655Z,6.87
2019-02-15T04:45:04.625Z,6.79
2019-02-15T04:46:04.572Z,6.89
2019-02-15T04:47:04.535Z,6.81
2019-02-15T04:48:04.498Z,6.92
2019-02-15T04:49:04.445Z,6.85
2019-02-15T04:50:04.408Z,6.92
2019-02-15T04:51:04.367Z,6.88
2019-02-15T04:52:04.327Z,6.92
2019-02-15T04:53:04.290Z,6.92
2019-02-15T04:54:04.245Z,6.87
2019-02-15T04:55:04.199Z,6.87
2019-02-15T04:56:04.158Z,6.88
2019-02-15T04:57:04.122Z,6.82
2019-02-15T04:58:04.077Z,6.78
2019-02-15T04:59:04.035Z,6.78
2019-02-15T05:00:03.997Z,6.78
2019-02-15T05:01:03.962Z,6.70
2019-02-15T05:02:03.911Z,6.75
2019-02-15T05:03:03.867Z,6.78
2019-02-15T05:04:03.825Z,6.77
2019-02-15T05:05:03.791Z,6.79
2019-02-15T05:06:03.749Z,6.63
2019-02-15T05:07:03.704Z,6.63
2019-02-15T05:08:03.662Z,6.62
2019-02-15T05:09:03.617Z,6.62
2019-02-15T05:10:03.585Z,6.54
2019-02-15T05:11:03.537Z,6.57
2019-02-15T05:12:03.497Z,6.51
2019-02-15T05:13:03.463Z,6.51
2019-02-15T05:14:03.414Z,6.45
2019-02-15T05:15:03.370Z,6.48
2019-02-15T05:16:03.339Z,6.44
2019-02-15T05:17:03.285Z,6.46
2019-02-15T05:18:03.245Z,6.33
2019-02-15T05:19:03.204Z,6.31
2019-02-15T05:20:03.170Z,6.33
2019-02-15T05:21:03.120Z,6.38
2019-02-15T05:22:03.079Z,6.33
2019-02-15T05:23:03.043Z,6.22
2019-02-15T05:24:03.000Z,6.28
2019-02-15T05:25:02.962Z,6.28
2019-02-15T05:26:02.914Z,6.30
2019-02-15T05:27:02.890Z,6.35
2019-02-15T05:28:02.828Z,6.38
2019-02-15T05:29:02.786Z,6.38
2019-02-15T05:30:02.751Z,6.36
2019-02-15T05:31:02.711Z,6.36
2019-02-15T05:32:02.672Z,6.31
2019-02-15T05:33:02.628Z,6.31
2019-02-15T05:34:02.583Z,6.27
2019-02-15T05:35:02.559Z,6.22
2019-02-15T05:36:02.494Z,6.27
2019-02-15T05:37:02.461Z,6.17
2019-02-15T05:38:02.414Z,6.22
2019-02-15T05:39:02.372Z,6.16
2019-02-15T05:40:02.359Z,6.11
2019-02-15T05:41:02.287Z,6.12
2019-02-15T05:42:02.253Z,6.16
2019-02-15T05:43:02.208Z,6.12
2019-02-15T05:44:02.169Z,6.07
2019-02-15T05:45:04.066Z,6.08
2019-02-15T05:46:02.083Z,6.07
2019-02-15T05:47:02.039Z,6.14
2019-02-15T05:48:01.997Z,6.07
2019-02-15T05:49:01.987Z,6.05
2019-02-15T05:50:01.917Z,6.02
2019-02-15T05:51:01.874Z,6.12
2019-02-15T05:52:01.832Z,6.09
2019-02-15T05:53:01.793Z,6.08
2019-02-15T05:54:01.745Z,6.11
2019-02-15T05:55:01.710Z,6.14
2019-02-15T05:56:01.667Z,6.19
2019-02-15T05:57:01.626Z,6.22
2019-02-15T05:58:01.580Z,6.20
2019-02-15T05:59:01.600Z,6.26
2019-02-15T06:00:01.510Z,6.19
2019-02-15T06:01:01.453Z,6.16
2019-02-15T06:02:01.418Z,6.12
2019-02-15T06:03:10.394Z,6.16
2019-02-15T06:04:01.496Z,6.20
2019-02-15T06:05:01.340Z,6.17
2019-02-15T06:06:01.338Z,6.12
2019-02-15T06:07:01.210Z,6.09
2019-02-15T06:08:01.319Z,6.14
2019-02-15T06:09:01.220Z,6.14
2019-02-15T06:10:01.210Z,6.26
2019-02-15T06:11:07.402Z,6.20
2019-02-15T06:12:01.379Z,6.19
2019-02-15T06:13:01.171Z,6.17
2019-02-15T06:14:01.100Z,6.20
2019-02-15T06:15:01.128Z,6.17
2019-02-15T06:16:01.146Z,6.20
2019-02-15T06:17:01.809Z,6.22
2019-02-15T06:18:00.942Z,6.11
2019-02-15T06:19:00.710Z,6.09
2019-02-15T06:20:00.980Z,6.02
2019-02-15T06:21:00.629Z,6.16
2019-02-15T06:22:00.671Z,6.02
2019-02-15T06:23:00.612Z,6.12
2019-02-15T06:24:00.707Z,6.08
2019-02-15T06:25:00.935Z,6.07
2019-02-15T06:26:00.565Z,6.05
2019-02-15T06:27:00.392Z,6.09
2019-02-15T06:28:00.373Z,6.05
2019-02-15T06:29:00.645Z,6.05
2019-02-15T06:30:00.698Z,6.12
2019-02-15T06:31:00.405Z,6.02
2019-02-15T06:32:00.266Z,6.14
2019-02-15T06:33:00.393Z,6.16
2019-02-15T06:34:00.177Z,6.11
2019-02-15T06:35:00.142Z,6.16
2019-02-15T06:36:00.057Z,6.12
2019-02-15T06:37:00.060Z,6.11
2019-02-15T06:38:00.092Z,6.12
2019-02-15T06:39:00.154Z,6.16
2019-02-15T06:39:59.923Z,6.16
2019-02-15T06:40:59.977Z,6.22
2019-02-15T06:41:59.906Z,6.19
2019-02-15T06:42:59.785Z,6.17
2019-02-15T06:43:59.757Z,6.14
2019-02-15T06:45:01.527Z,6.12
2019-02-15T06:45:59.643Z,6.20
2019-02-15T06:46:59.874Z,6.27
2019-02-15T06:47:59.702Z,6.19
2019-02-15T06:48:59.556Z,6.24
2019-02-15T06:49:59.468Z,6.22
2019-02-15T06:50:59.386Z,6.27
2019-02-15T06:51:59.539Z,6.27
2019-02-15T06:52:59.451Z,6.28
2019-02-15T06:53:59.294Z,6.28
2019-02-15T06:54:59.316Z,6.27
2019-02-15T06:55:59.284Z,6.30
2019-02-15T06:56:59.361Z,6.33
2019-02-15T06:57:59.098Z,6.26
2019-02-15T06:58:59.078Z,6.33
2019-02-15T06:59:59.006Z,6.31
2019-02-15T07:00:59.030Z,6.24
2019-02-15T07:01:58.954Z,6.28
2019-02-15T07:02:58.949Z,6.27
2019-02-15T07:03:58.833Z,6.33
2019-02-15T07:04:58.844Z,6.39
2019-02-15T07:05:58.774Z,6.38
2019-02-15T07:06:58.758Z,6.41
2019-02-15T07:07:58.705Z,6.48
2019-02-15T07:08:58.630Z,6.38
2019-02-15T07:09:58.627Z,6.46
2019-02-15T07:10:58.589Z,6.39
2019-02-15T07:11:58.547Z,6.51
2019-02-15T07:12:58.537Z,6.56
2019-02-15T07:13:58.412Z,6.57
2019-02-15T07:14:58.421Z,6.56
2019-02-15T07:15:58.436Z,6.54
2019-02-15T07:16:58.445Z,6.54
2019-02-15T07:17:58.285Z,6.62
2019-02-15T07:18:58.354Z,6.56
2019-02-15T07:19:58.342Z,6.57
2019-02-15T07:20:58.119Z,6.62
2019-02-15T07:21:58.075Z,6.57
2019-02-15T07:22:58.045Z,6.52
2019-02-15T07:23:57.999Z,6.52
2019-02-15T07:24:57.960Z,6.62
2019-02-15T07:25:57.979Z,6.69
2019-02-15T07:26:57.965Z,6.74
2019-02-15T07:27:57.889Z,6.66
2019-02-15T07:28:57.952Z,6.74
2019-02-15T07:29:57.834Z,6.79
2019-02-15T07:30:57.796Z,6.85
2019-02-15T07:31:57.801Z,6.87
2019-02-15T07:32:57.648Z,6.92
2019-02-15T07:33:57.660Z,6.88
2019-02-15T07:34:57.678Z,7.03
2019-02-15T07:35:57.548Z,6.97
2019-02-15T07:36:57.494Z,7.00
2019-02-15T07:37:57.420Z,7.05
2019-02-15T07:38:57.396Z,7.06
2019-02-15T07:39:57.389Z,7.06
2019-02-15T07:40:57.353Z,7.14
2019-02-15T07:41:57.361Z,7.14
2019-02-15T07:42:57.224Z,7.24
2019-02-15T07:43:57.170Z,7.28
2019-02-15T07:44:57.298Z,7.20
2019-02-15T07:45:57.147Z,7.21
2019-02-15T07:46:57.100Z,7.25
2019-02-15T07:47:58.566Z,7.31
2019-02-15T07:48:56.978Z,7.35
2019-02-15T07:49:56.981Z,7.35
2019-02-15T07:50:56.979Z,7.48
2019-02-15T07:51:56.887Z,7.50
2019-02-15T07:52:56.791Z,7.57
2019-02-15T07:53:56.767Z,7.67
2019-02-15T07:54:56.777Z,7.70
2019-02-15T07:55:56.675Z,7.85
2019-02-15T07:56:56.660Z,7.94
2019-02-15T07:57:56.589Z,7.95
2019-02-15T07:58:56.646Z,7.95
2019-02-15T07:59:56.503Z,8.01
2019-02-15T08:00:56.710Z,8.05
2019-02-15T08:02:01.871Z,8.26
2019-02-15T08:02:56.391Z,8.31
2019-02-15T08:03:56.354Z,8.58
2019-02-15T08:04:56.380Z,8.56
2019-02-15T08:05:56.259Z,8.81
2019-02-15T08:06:56.265Z,8.92
2019-02-15T08:07:56.181Z,9.06
2019-02-15T08:08:56.146Z,9.26
2019-02-15T08:09:56.100Z,9.32
2019-02-15T08:10:56.058Z,9.37
2019-02-15T08:11:56.182Z,9.58
2019-02-15T08:12:56.110Z,9.59
2019-02-15T08:13:55.932Z,9.54
2019-02-15T08:14:55.898Z,9.61
2019-02-15T08:15:55.858Z,9.69
2019-02-15T08:16:55.808Z,9.82
2019-02-15T08:17:55.864Z,9.91
2019-02-15T08:18:55.742Z,10.15
2019-02-15T08:19:55.709Z,10.09
2019-02-15T08:20:55.654Z,10.17
2019-02-15T08:21:55.764Z,10.23
2019-02-15T08:22:55.627Z,10.28
2019-02-15T08:23:55.728Z,10.34
2019-02-15T08:24:55.489Z,10.30
2019-02-15T08:25:55.445Z,10.33
2019-02-15T08:26:55.410Z,10.30
2019-02-15T08:27:55.395Z,10.28
2019-02-15T08:28:55.355Z,10.25
2019-02-15T08:29:55.523Z,10.34
2019-02-15T08:30:55.243Z,10.42
2019-02-15T08:31:55.204Z,10.44
2019-02-15T08:32:55.345Z,10.48
2019-02-15T08:33:55.126Z,10.54
2019-02-15T08:34:55.090Z,10.63
2019-02-15T08:35:55.116Z,10.74
2019-02-15T08:36:55.136Z,10.69
2019-02-15T08:37:55.201Z,10.69
2019-02-15T08:38:54.931Z,10.68
2019-02-15T08:39:54.884Z,10.63
2019-02-15T08:40:55.261Z,10.64
2019-02-15T08:42:01.346Z,10.69
2019-02-15T08:42:55.956Z,10.75
2019-02-15T08:43:54.839Z,10.86
2019-02-15T08:44:54.689Z,10.94
2019-02-15T08:46:00.600Z,10.92
2019-02-15T08:46:54.640Z,11.00
2019-02-15T08:47:54.591Z,11.07
2019-02-15T08:48:54.805Z,11.22
2019-02-15T08:49:54.537Z,11.32
2019-02-15T08:50:54.454Z,11.44
2019-02-15T08:51:54.403Z,11.43
2019-02-15T08:52:55.178Z,11.41
2019-02-15T08:53:54.334Z,11.41
2019-02-15T08:54:54.346Z,11.48
2019-02-15T08:55:54.395Z,11.63
2019-02-15T08:56:54.217Z,11.62
2019-02-15T08:57:54.336Z,11.63
2019-02-15T08:58:54.128Z,11.72
2019-02-15T08:59:54.181Z,11.73
2019-02-15T09:00:54.080Z,11.77
2019-02-15T09:01:54.015Z,11.73
2019-02-15T09:02:54.024Z,11.69
2019-02-15T09:03:53.930Z,11.75
2019-02-15T09:04:53.895Z,11.80
2019-02-15T09:05:53.855Z,11.78
2019-02-15T09:06:53.913Z,11.83
2019-02-15T09:07:54.047Z,11.70
2019-02-15T09:08:53.735Z,11.75
2019-02-15T09:09:53.704Z,11.69
2019-02-15T09:10:53.722Z,11.70
2019-02-15T09:11:53.692Z,11.66
2019-02-15T09:12:53.585Z,11.75
2019-02-15T09:13:53.717Z,11.83
2019-02-15T09:14:53.742Z,11.80
2019-02-15T09:15:53.629Z,12.02
2019-02-15T09:16:53.419Z,12.00
2019-02-15T09:17:53.652Z,11.99
2019-02-15T09:18:53.348Z,11.94
2019-02-15T09:19:53.333Z,11.91
2019-02-15T09:20:53.612Z,12.04
2019-02-15T09:21:53.243Z,12.09
2019-02-15T09:22:53.189Z,12.09
2019-02-15T09:23:53.332Z,12.09
2019-02-15T09:24:53.136Z,12.21
2019-02-15T09:25:53.071Z,12.27
2019-02-15T09:26:53.355Z,12.35
2019-02-15T09:27:53.014Z,12.36
2019-02-15T09:28:52.963Z,12.36
2019-02-15T09:29:52.944Z,12.39
2019-02-15T09:30:52.879Z,12.36
2019-02-15T09:31:52.865Z,12.40
2019-02-15T09:32:52.802Z,12.37
2019-02-15T09:33:52.822Z,12.37
2019-02-15T09:34:52.870Z,12.39
2019-02-15T09:35:52.682Z,12.37
2019-02-15T09:36:52.652Z,12.32
2019-02-15T09:37:52.724Z,12.40
2019-02-15T09:38:52.673Z,12.43
2019-02-15T09:39:52.550Z,12.45
2019-02-15T09:40:52.529Z,12.49
2019-02-15T09:41:52.497Z,12.42
2019-02-15T09:42:52.421Z,12.60
2019-02-15T09:43:52.371Z,12.60
2019-02-15T09:44:52.530Z,12.78
2019-02-15T09:45:52.534Z,12.82
2019-02-15T09:46:52.263Z,12.83
2019-02-15T09:47:52.292Z,12.87
2019-02-15T09:48:52.218Z,13.09
2019-02-15T09:49:52.402Z,13.13
2019-02-15T09:50:52.125Z,13.04
2019-02-15T09:51:52.077Z,13.16
2019-02-15T09:52:52.027Z,13.12
2019-02-15T09:53:52.118Z,13.16
2019-02-15T09:54:51.982Z,13.16
2019-02-15T09:55:52.136Z,13.23
2019-02-15T09:56:51.881Z,13.18
2019-02-15T09:57:51.845Z,13.15
2019-02-15T09:58:51.810Z,13.30
2019-02-15T09:59:51.772Z,13.30
2019-02-15T10:00:51.726Z,13.44
2019-02-15T10:01:51.684Z,13.49
2019-02-15T10:02:51.818Z,13.54
2019-02-15T10:03:51.876Z,13.63
2019-02-15T10:04:51.866Z,13.67
2019-02-15T10:19:22.876Z,13.96
2019-02-15T10:20:22.617Z,13.99
2019-02-15T10:22:17.048Z,13.99
2019-02-15T10:23:16.941Z,14.00
2019-02-15T10:25:22.051Z,14.10
2019-02-15T10:26:21.903Z,14.11
2019-02-15T10:27:21.659Z,14.17
2019-02-15T10:28:21.693Z,14.05
2019-02-15T10:29:21.671Z,14.10
2019-02-15T10:30:21.793Z,14.07
2019-02-15T10:31:21.550Z,14.07
2019-02-15T10:32:21.478Z,14.12
2019-02-15T10:33:21.501Z,14.17
2019-02-15T10:34:21.396Z,14.18
2019-02-15T10:35:21.349Z,14.17
2019-02-15T10:36:21.351Z,14.25
2019-02-15T10:37:21.297Z,14.33
2019-02-15T10:38:21.287Z,14.37
2019-02-15T10:39:21.335Z,14.51
2019-02-15T10:40:21.296Z,14.50
2019-02-15T10:41:21.273Z,14.65
2019-02-15T10:42:21.091Z,14.63
2019-02-15T10:43:21.043Z,14.78
2019-02-15T10:44:21.076Z,14.91
2019-02-15T10:45:21.289Z,14.94
2019-02-15T10:46:20.938Z,14.96
2019-02-15T10:47:25.017Z,15.06
2019-02-15T10:48:21.014Z,15.03
2019-02-15T10:49:20.889Z,14.96
2019-02-15T10:50:20.985Z,14.89
2019-02-15T10:51:20.739Z,14.92
2019-02-15T10:52:20.744Z,14.85
2019-02-15T10:53:20.673Z,14.84
2019-02-15T10:54:20.655Z,14.91
2019-02-15T10:55:20.631Z,14.99
2019-02-15T10:56:20.681Z,15.00
2019-02-15T10:57:20.540Z,15.07
2019-02-15T10:58:20.552Z,15.07
2019-02-15T10:59:20.470Z,15.18
2019-02-15T11:00:20.415Z,15.02
2019-02-15T11:01:20.424Z,15.04
2019-02-15T11:02:20.330Z,15.21
2019-02-15T11:03:20.383Z,15.25
2019-02-15T11:04:20.297Z,15.33
2019-02-15T11:05:20.432Z,15.37
2019-02-15T11:06:20.481Z,15.46
2019-02-15T11:07:20.161Z,15.43
2019-02-15T11:08:20.133Z,15.46
2019-02-15T11:09:20.075Z,15.44
2019-02-15T11:10:20.076Z,15.51
2019-02-15T11:11:20.222Z,15.58
2019-02-15T11:12:20.154Z,15.47
2019-02-15T11:13:20.054Z,15.43
2019-02-15T11:14:19.890Z,15.47
2019-02-15T11:15:19.977Z,15.36
2019-02-15T11:16:19.841Z,15.37
2019-02-15T11:17:19.779Z,15.29
2019-02-15T11:18:19.737Z,15.42
2019-02-15T11:19:19.719Z,15.40
2019-02-15T11:20:19.708Z,15.33
2019-02-15T11:21:19.659Z,15.43
2019-02-15T11:22:19.597Z,15.51
2019-02-15T11:23:19.677Z,15.62
2019-02-15T11:24:19.517Z,15.57
2019-02-15T11:25:19.484Z,15.55
2019-02-15T11:26:24.822Z,15.54
2019-02-15T11:27:19.417Z,15.54
2019-02-15T11:28:19.416Z,15.52
2019-02-15T11:29:19.416Z,15.57
2019-02-15T11:30:19.305Z,15.49
2019-02-15T11:31:19.273Z,15.49
2019-02-15T11:32:19.273Z,15.46
2019-02-15T11:33:19.198Z,15.57
2019-02-15T11:34:19.167Z,15.59
2019-02-15T11:35:19.114Z,15.51
2019-02-15T11:36:19.344Z,15.49
2019-02-15T11:37:19.112Z,15.52
2019-02-15T11:38:19.013Z,15.47
2019-02-15T11:39:18.995Z,15.44
2019-02-15T11:40:18.945Z,15.33
2019-02-15T11:41:18.928Z,15.36
2019-02-15T11:42:18.959Z,15.40
2019-02-15T11:43:18.827Z,15.49
2019-02-15T11:44:18.966Z,15.46
2019-02-15T11:45:18.796Z,15.68
2019-02-15T11:46:18.750Z,15.70
2019-02-15T11:47:18.691Z,15.72
2019-02-15T11:48:18.646Z,15.73
2019-02-15T11:49:18.732Z,15.73
2019-02-15T11:50:18.588Z,15.72
2019-02-15T11:51:18.550Z,15.73
2019-02-15T11:52:18.509Z,15.76
2019-02-15T11:53:18.481Z,15.88
2019-02-15T11:54:23.541Z,15.86
2019-02-15T11:55:18.424Z,15.90
2019-02-15T11:56:19.008Z,15.86
2019-02-15T11:57:18.326Z,15.80
2019-02-15T11:58:18.291Z,15.80
2019-02-15T11:59:18.284Z,15.88
2019-02-15T12:00:20.384Z,15.83
2019-02-15T12:01:18.308Z,15.86
2019-02-15T12:02:18.151Z,15.88
2019-02-15T12:03:24.806Z,15.84
2019-02-15T12:04:27.999Z,15.82
2019-02-15T12:05:19.195Z,15.92
2019-02-15T12:06:29.631Z,15.95
2019-02-15T12:07:29.915Z,15.88
2019-02-15T12:08:30.302Z,15.91
2019-02-15T12:09:28.686Z,15.97
2019-02-15T12:10:26.838Z,16.00
2019-02-15T12:11:25.179Z,16.17
2019-02-15T12:12:18.080Z,16.28
2019-02-15T12:13:26.951Z,16.46
2019-02-15T12:14:22.682Z,16.38
2019-02-15T12:15:26.951Z,16.46
2019-02-15T12:16:27.248Z,16.43
2019-02-15T12:17:27.535Z,16.41
2019-02-15T12:18:21.182Z,16.35
2019-02-15T12:19:25.649Z,16.47
2019-02-15T12:20:25.294Z,16.41
2019-02-15T12:21:21.779Z,16.47
2019-02-15T12:22:26.118Z,16.42
2019-02-15T12:23:30.495Z,16.35
2019-02-15T12:24:25.727Z,16.46
2019-02-15T12:25:31.228Z,16.46
2019-02-15T12:26:26.095Z,16.53
2019-02-15T12:27:25.308Z,16.46
2019-02-15T12:28:30.706Z,16.57
2019-02-15T12:29:28.405Z,16.64
2019-02-15T12:30:26.228Z,16.61
2019-02-15T12:31:30.139Z,16.61
2019-02-15T12:32:25.643Z,16.66
2019-02-15T12:33:27.360Z,16.69
2019-02-15T12:34:27.312Z,16.66
2019-02-15T12:35:25.104Z,16.61
2019-02-15T12:36:27.431Z,16.58
2019-02-15T12:37:23.475Z,16.60
2019-02-15T12:38:24.269Z,16.56
2019-02-15T12:39:27.937Z,16.64
2019-02-15T12:40:29.295Z,16.66
2019-02-15T12:41:23.104Z,16.79
2019-02-15T12:42:20.996Z,16.69
2019-02-15T12:43:23.376Z,16.69
2019-02-15T12:44:34.900Z,16.69
2019-02-15T12:45:24.643Z,16.81
2019-02-15T12:46:24.800Z,16.78
2019-02-15T12:47:17.606Z,16.86
2019-02-15T12:48:22.845Z,16.89
2019-02-15T12:49:23.874Z,16.86
2019-02-15T12:50:26.137Z,16.86
2019-02-15T12:51:26.958Z,16.91
2019-02-15T12:52:24.745Z,16.97
2019-02-15T12:53:28.499Z,17.02
2019-02-15T12:54:23.955Z,16.93
2019-02-15T12:55:25.775Z,16.96
2019-02-15T12:56:23.431Z,16.91
2019-02-15T12:57:34.254Z,16.96
2019-02-15T12:58:28.218Z,16.90
2019-02-15T12:59:27.373Z,17.04
2019-02-15T13:00:28.365Z,17.09
2019-02-15T13:01:28.396Z,17.11
2019-02-15T13:02:23.806Z,17.05
2019-02-15T13:03:24.305Z,17.15
2019-02-15T13:04:23.930Z,17.24
2019-02-15T13:05:27.220Z,17.05
2019-02-15T13:06:35.765Z,17.16
2019-02-15T13:07:31.711Z,17.34
2019-02-15T13:08:21.434Z,17.39
2019-02-15T13:09:25.938Z,17.36
2019-02-15T13:10:25.752Z,17.34
2019-02-15T13:11:25.392Z,17.38
2019-02-15T13:12:22.772Z,17.33
2019-02-15T13:13:26.854Z,17.24
2019-02-15T13:14:26.426Z,17.22
2019-02-15T13:15:24.860Z,17.19
2019-02-15T13:16:24.215Z,17.15
2019-02-15T13:17:30.777Z,17.14
2019-02-15T13:18:29.142Z,17.23
2019-02-15T13:19:25.716Z,17.26
2019-02-15T13:20:34.802Z,17.27
2019-02-15T13:21:27.117Z,17.24
2019-02-15T13:22:20.961Z,17.26
2019-02-15T13:23:27.656Z,17.30
2019-02-15T13:24:27.376Z,17.31
2019-02-15T13:25:23.471Z,17.38
2019-02-15T13:26:20.828Z,17.38
2019-02-15T13:27:26.477Z,17.51
2019-02-15T13:28:26.129Z,17.52
2019-02-15T13:29:26.995Z,17.57
2019-02-15T13:33:30.913Z,17.41
2019-02-15T13:34:21.432Z,17.56
2019-02-15T13:38:38.037Z,17.59
2019-02-15T13:42:33.585Z,17.49
2019-02-15T13:51:03.069Z,17.48
2019-02-15T13:54:12.314Z,17.63
2019-02-15T14:01:20.203Z,17.80
2019-02-15T14:04:32.918Z,17.82
2019-02-15T14:06:14.332Z,17.80
2019-02-15T14:06:35.063Z,17.80
2019-02-15T14:09:38.777Z,17.76